sensor_id;sensor_type;location;lat;lon;timestamp;temperature;humidity
31379;DHT22;61664;48.112;11.662;2022-10-04T00:01:30;9.70;81.30
31379;DHT22;61664;48.112;11.662;2022-10-04T00:04:17;9.60;82.10
31379;DHT22;61664;48.112;11.662;2022-10-04T00:06:59;9.70;82.60
31379;DHT22;61664;48.112;11.662;2022-10-04T00:13:03;9.70;81.50
31379;DHT22;61664;48.112;11.662;2022-10-04T00:15:35;9.80;81.40
31379;DHT22;61664;48.112;11.662;2022-10-04T00:26:00;9.90;83.30
31379;DHT22;61664;48.112;11.662;2022-10-04T00:28:42;10.00;83.40
31379;DHT22;61664;48.112;11.662;2022-10-04T00:31:25;10.00;82.00
31379;DHT22;61664;48.112;11.662;2022-10-04T00:33:57;10.00;81.30
31379;DHT22;61664;48.112;11.662;2022-10-04T00:36:53;10.00;83.10
31379;DHT22;61664;48.112;11.662;2022-10-04T00:42:12;10.10;81.90
31379;DHT22;61664;48.112;11.662;2022-10-04T00:45:01;10.10;81.20
31379;DHT22;61664;48.112;11.662;2022-10-04T00:47:52;10.00;80.30
31379;DHT22;61664;48.112;11.662;2022-10-04T00:53:35;10.00;80.80
31379;DHT22;61664;48.112;11.662;2022-10-04T00:56:05;10.00;80.60
31379;DHT22;61664;48.112;11.662;2022-10-04T01:01:26;9.90;79.50
31379;DHT22;61664;48.112;11.662;2022-10-04T01:03:56;9.90;81.20
31379;DHT22;61664;48.112;11.662;2022-10-04T01:06:24;9.90;81.10
31379;DHT22;61664;48.112;11.662;2022-10-04T01:08:55;9.80;81.20
31379;DHT22;61664;48.112;11.662;2022-10-04T01:11:34;9.80;81.00
31379;DHT22;61664;48.112;11.662;2022-10-04T01:14:19;9.80;80.70
31379;DHT22;61664;48.112;11.662;2022-10-04T01:16:57;9.80;79.90
31379;DHT22;61664;48.112;11.662;2022-10-04T01:19:29;9.80;81.10
31379;DHT22;61664;48.112;11.662;2022-10-04T01:22:42;9.70;80.50
31379;DHT22;61664;48.112;11.662;2022-10-04T01:25:03;9.70;80.80
31379;DHT22;61664;48.112;11.662;2022-10-04T01:27:31;9.70;80.80
31379;DHT22;61664;48.112;11.662;2022-10-04T01:30:12;9.60;80.80
31379;DHT22;61664;48.112;11.662;2022-10-04T01:32:40;9.60;80.60
31379;DHT22;61664;48.112;11.662;2022-10-04T01:35:13;9.50;80.80
31379;DHT22;61664;48.112;11.662;2022-10-04T01:37:41;9.50;80.30
31379;DHT22;61664;48.112;11.662;2022-10-04T01:40:08;9.40;80.90
31379;DHT22;61664;48.112;11.662;2022-10-04T01:42:50;9.40;80.90
31379;DHT22;61664;48.112;11.662;2022-10-04T01:46:02;9.40;79.50
31379;DHT22;61664;48.112;11.662;2022-10-04T01:48:26;9.40;80.40
31379;DHT22;61664;48.112;11.662;2022-10-04T01:51:15;9.40;80.80
31379;DHT22;61664;48.112;11.662;2022-10-04T01:53:53;9.30;79.50
31379;DHT22;61664;48.112;11.662;2022-10-04T01:56:30;9.30;80.40
31379;DHT22;61664;48.112;11.662;2022-10-04T01:59:23;9.20;80.60
31379;DHT22;61664;48.112;11.662;2022-10-04T02:02:08;9.20;79.70
31379;DHT22;61664;48.112;11.662;2022-10-04T02:04:49;9.20;79.80
31379;DHT22;61664;48.112;11.662;2022-10-04T02:07:21;9.20;80.70
31379;DHT22;61664;48.112;11.662;2022-10-04T02:09:55;9.10;81.10
31379;DHT22;61664;48.112;11.662;2022-10-04T02:12:25;9.10;80.80
31379;DHT22;61664;48.112;11.662;2022-10-04T02:14:59;9.10;81.10
31379;DHT22;61664;48.112;11.662;2022-10-04T02:17:33;9.10;81.00
31379;DHT22;61664;48.112;11.662;2022-10-04T02:20:20;9.10;80.70
31379;DHT22;61664;48.112;11.662;2022-10-04T02:22:54;9.00;80.60
31379;DHT22;61664;48.112;11.662;2022-10-04T02:25:25;9.00;80.90
31379;DHT22;61664;48.112;11.662;2022-10-04T02:27:52;9.00;81.10
31379;DHT22;61664;48.112;11.662;2022-10-04T02:30:21;9.00;81.20
31379;DHT22;61664;48.112;11.662;2022-10-04T02:32:52;8.90;81.30
31379;DHT22;61664;48.112;11.662;2022-10-04T02:35:36;8.90;81.00
31379;DHT22;61664;48.112;11.662;2022-10-04T02:38:16;8.90;80.50
31379;DHT22;61664;48.112;11.662;2022-10-04T02:41:11;8.90;81.00
31379;DHT22;61664;48.112;11.662;2022-10-04T02:44:15;8.80;80.30
31379;DHT22;61664;48.112;11.662;2022-10-04T02:47:06;8.90;80.00
31379;DHT22;61664;48.112;11.662;2022-10-04T02:53:38;8.80;81.00
31379;DHT22;61664;48.112;11.662;2022-10-04T02:55:48;8.80;79.60
31379;DHT22;61664;48.112;11.662;2022-10-04T02:58:19;8.80;81.50
31379;DHT22;61664;48.112;11.662;2022-10-04T03:00:50;8.80;81.40
31379;DHT22;61664;48.112;11.662;2022-10-04T03:03:29;8.80;81.50
31379;DHT22;61664;48.112;11.662;2022-10-04T03:06:05;8.70;80.80
31379;DHT22;61664;48.112;11.662;2022-10-04T03:11:28;8.70;81.40
31379;DHT22;61664;48.112;11.662;2022-10-04T03:14:00;8.70;81.40
31379;DHT22;61664;48.112;11.662;2022-10-04T03:16:36;8.70;81.40
31379;DHT22;61664;48.112;11.662;2022-10-04T03:19:05;8.70;81.10
31379;DHT22;61664;48.112;11.662;2022-10-04T03:21:36;8.60;81.50
31379;DHT22;61664;48.112;11.662;2022-10-04T03:24:06;8.70;81.30
31379;DHT22;61664;48.112;11.662;2022-10-04T03:26:49;8.70;81.50
31379;DHT22;61664;48.112;11.662;2022-10-04T03:29:22;8.60;80.00
31379;DHT22;61664;48.112;11.662;2022-10-04T03:31:54;8.60;81.20
31379;DHT22;61664;48.112;11.662;2022-10-04T03:34:35;8.60;81.20
31379;DHT22;61664;48.112;11.662;2022-10-04T03:37:10;8.60;81.10
31379;DHT22;61664;48.112;11.662;2022-10-04T03:39:46;8.60;80.70
31379;DHT22;61664;48.112;11.662;2022-10-04T03:42:19;8.60;80.80
31379;DHT22;61664;48.112;11.662;2022-10-04T03:44:51;8.50;81.00
31379;DHT22;61664;48.112;11.662;2022-10-04T03:47:31;8.50;81.20
31379;DHT22;61664;48.112;11.662;2022-10-04T03:50:13;8.50;81.10
31379;DHT22;61664;48.112;11.662;2022-10-04T03:52:54;8.50;80.30
31379;DHT22;61664;48.112;11.662;2022-10-04T03:55:24;8.50;80.40
31379;DHT22;61664;48.112;11.662;2022-10-04T03:57:59;8.50;81.30
31379;DHT22;61664;48.112;11.662;2022-10-04T04:00:26;8.50;81.60
31379;DHT22;61664;48.112;11.662;2022-10-04T04:03:00;8.40;81.60
31379;DHT22;61664;48.112;11.662;2022-10-04T04:05:40;8.40;81.10
31379;DHT22;61664;48.112;11.662;2022-10-04T04:08:33;8.40;80.90
31379;DHT22;61664;48.112;11.662;2022-10-04T04:11:05;8.40;81.50
31379;DHT22;61664;48.112;11.662;2022-10-04T04:14:02;8.40;81.70
31379;DHT22;61664;48.112;11.662;2022-10-04T04:16:36;8.40;80.20
31379;DHT22;61664;48.112;11.662;2022-10-04T04:19:12;8.30;81.70
31379;DHT22;61664;48.112;11.662;2022-10-04T04:21:42;8.30;81.20
31379;DHT22;61664;48.112;11.662;2022-10-04T04:24:26;8.30;81.70
31379;DHT22;61664;48.112;11.662;2022-10-04T04:26:57;8.30;80.30
31379;DHT22;61664;48.112;11.662;2022-10-04T04:29:53;8.30;81.50
31379;DHT22;61664;48.112;11.662;2022-10-04T04:32:32;8.30;81.20
31379;DHT22;61664;48.112;11.662;2022-10-04T04:35:04;8.30;80.50
31379;DHT22;61664;48.112;11.662;2022-10-04T04:37:36;8.30;81.50
31379;DHT22;61664;48.112;11.662;2022-10-04T04:40:20;8.30;81.60
31379;DHT22;61664;48.112;11.662;2022-10-04T04:42:50;8.30;80.10
31379;DHT22;61664;48.112;11.662;2022-10-04T04:45:21;8.30;81.60
31379;DHT22;61664;48.112;11.662;2022-10-04T04:47:53;8.20;81.50
31379;DHT22;61664;48.112;11.662;2022-10-04T04:50:24;8.20;81.40
31379;DHT22;61664;48.112;11.662;2022-10-04T04:55:48;8.20;80.90
31379;DHT22;61664;48.112;11.662;2022-10-04T04:58:42;8.30;80.80
31379;DHT22;61664;48.112;11.662;2022-10-04T05:01:30;8.20;80.60
31379;DHT22;61664;48.112;11.662;2022-10-04T05:06:30;8.20;81.20
31379;DHT22;61664;48.112;11.662;2022-10-04T05:08:59;8.10;81.20
31379;DHT22;61664;48.112;11.662;2022-10-04T05:11:30;8.10;81.20
31379;DHT22;61664;48.112;11.662;2022-10-04T05:14:06;8.20;80.90
31379;DHT22;61664;48.112;11.662;2022-10-04T05:16:47;8.10;80.90
31379;DHT22;61664;48.112;11.662;2022-10-04T05:21:50;8.10;80.70
31379;DHT22;61664;48.112;11.662;2022-10-04T05:24:46;8.10;81.50
31379;DHT22;61664;48.112;11.662;2022-10-04T05:27:29;8.10;80.70
31379;DHT22;61664;48.112;11.662;2022-10-04T05:33:12;8.10;81.10
31379;DHT22;61664;48.112;11.662;2022-10-04T05:35:54;8.10;80.30
31379;DHT22;61664;48.112;11.662;2022-10-04T05:38:48;8.10;81.40
31379;DHT22;61664;48.112;11.662;2022-10-04T05:41:27;8.10;81.30
31379;DHT22;61664;48.112;11.662;2022-10-04T05:44:26;8.20;81.80
31379;DHT22;61664;48.112;11.662;2022-10-04T05:47:15;8.20;81.50
31379;DHT22;61664;48.112;11.662;2022-10-04T05:49:50;8.20;83.40
31379;DHT22;61664;48.112;11.662;2022-10-04T05:52:39;8.30;83.70
31379;DHT22;61664;48.112;11.662;2022-10-04T06:01:30;8.50;82.70
31379;DHT22;61664;48.112;11.662;2022-10-04T06:04:30;8.50;82.20
31379;DHT22;61664;48.112;11.662;2022-10-04T06:07:10;8.60;84.80
31379;DHT22;61664;48.112;11.662;2022-10-04T06:24:51;9.30;87.20
31379;DHT22;61664;48.112;11.662;2022-10-04T06:36:27;9.70;85.70
31379;DHT22;61664;48.112;11.662;2022-10-04T06:44:36;10.00;85.10
31379;DHT22;61664;48.112;11.662;2022-10-04T06:50:41;10.10;83.80
31379;DHT22;61664;48.112;11.662;2022-10-04T06:59:32;10.30;85.60
31379;DHT22;61664;48.112;11.662;2022-10-04T07:02:13;10.50;86.00
31379;DHT22;61664;48.112;11.662;2022-10-04T07:04:56;10.60;87.40
31379;DHT22;61664;48.112;11.662;2022-10-04T07:07:37;10.70;86.20
31379;DHT22;61664;48.112;11.662;2022-10-04T07:10:33;10.80;88.30
31379;DHT22;61664;48.112;11.662;2022-10-04T07:13:19;11.00;84.90
31379;DHT22;61664;48.112;11.662;2022-10-04T07:18:38;11.40;89.70
31379;DHT22;61664;48.112;11.662;2022-10-04T07:21:40;11.60;90.20
31379;DHT22;61664;48.112;11.662;2022-10-04T07:24:23;11.80;87.20
31379;DHT22;61664;48.112;11.662;2022-10-04T07:27:16;12.10;89.10
31379;DHT22;61664;48.112;11.662;2022-10-04T07:29:54;12.40;89.70
31379;DHT22;61664;48.112;11.662;2022-10-04T07:32:33;12.60;87.60
31379;DHT22;61664;48.112;11.662;2022-10-04T07:40:38;13.10;86.20
31379;DHT22;61664;48.112;11.662;2022-10-04T07:43:21;13.40;89.40
31379;DHT22;61664;48.112;11.662;2022-10-04T07:46:05;13.60;85.20
31379;DHT22;61664;48.112;11.662;2022-10-04T07:48:43;13.90;87.30
31379;DHT22;61664;48.112;11.662;2022-10-04T07:54:03;14.60;83.10
31379;DHT22;61664;48.112;11.662;2022-10-04T08:03:08;15.60;80.80
31379;DHT22;61664;48.112;11.662;2022-10-04T08:20:38;16.40;80.30
31379;DHT22;61664;48.112;11.662;2022-10-04T08:47:12;19.60;79.30
31379;DHT22;61664;48.112;11.662;2022-10-04T08:50:25;20.00;81.20
31379;DHT22;61664;48.112;11.662;2022-10-04T08:56:44;20.40;69.10
31379;DHT22;61664;48.112;11.662;2022-10-04T09:05:52;20.70;68.80
31379;DHT22;61664;48.112;11.662;2022-10-04T09:09:02;20.80;66.70
31379;DHT22;61664;48.112;11.662;2022-10-04T09:14:35;21.10;70.30
31379;DHT22;61664;48.112;11.662;2022-10-04T09:17:18;21.20;77.70
31379;DHT22;61664;48.112;11.662;2022-10-04T09:20:17;21.30;69.60
31379;DHT22;61664;48.112;11.662;2022-10-04T09:26:20;21.40;69.00
31379;DHT22;61664;48.112;11.662;2022-10-04T09:35:37;21.90;75.80
31379;DHT22;61664;48.112;11.662;2022-10-04T09:48:38;22.20;76.20
31379;DHT22;61664;48.112;11.662;2022-10-04T10:00:18;22.80;74.50
31379;DHT22;61664;48.112;11.662;2022-10-04T10:03:01;23.00;66.60
31379;DHT22;61664;48.112;11.662;2022-10-04T10:08:36;23.10;70.80
31379;DHT22;61664;48.112;11.662;2022-10-04T10:14:57;23.30;65.40
31379;DHT22;61664;48.112;11.662;2022-10-04T10:18:14;23.30;64.20
31379;DHT22;61664;48.112;11.662;2022-10-04T10:48:19;22.30;64.10
31379;DHT22;61664;48.112;11.662;2022-10-04T10:51:15;22.20;64.10
31379;DHT22;61664;48.112;11.662;2022-10-04T11:12:29;21.50;63.30
31379;DHT22;61664;48.112;11.662;2022-10-04T11:24:31;21.10;65.10
31379;DHT22;61664;48.112;11.662;2022-10-04T11:30:16;21.10;69.80
31379;DHT22;61664;48.112;11.662;2022-10-04T11:33:42;21.20;65.30
31379;DHT22;61664;48.112;11.662;2022-10-04T11:40:06;21.40;64.80
31379;DHT22;61664;48.112;11.662;2022-10-04T11:49:19;21.20;63.80
31379;DHT22;61664;48.112;11.662;2022-10-04T11:54:52;21.20;63.50
31379;DHT22;61664;48.112;11.662;2022-10-04T11:57:53;21.20;63.10
31379;DHT22;61664;48.112;11.662;2022-10-04T12:00:25;21.20;63.00
31379;DHT22;61664;48.112;11.662;2022-10-04T12:06:58;21.20;64.70
31379;DHT22;61664;48.112;11.662;2022-10-04T12:09:40;21.20;65.20
31379;DHT22;61664;48.112;11.662;2022-10-04T12:15:50;21.10;62.60
31379;DHT22;61664;48.112;11.662;2022-10-04T12:24:59;21.10;63.20
31379;DHT22;61664;48.112;11.662;2022-10-04T12:27:55;21.20;63.30
31379;DHT22;61664;48.112;11.662;2022-10-04T12:36:32;21.40;65.60
31379;DHT22;61664;48.112;11.662;2022-10-04T12:45:37;21.20;62.00
31379;DHT22;61664;48.112;11.662;2022-10-04T13:00:18;21.00;63.30
31379;DHT22;61664;48.112;11.662;2022-10-04T13:08:19;21.00;63.20
31379;DHT22;61664;48.112;11.662;2022-10-04T13:28:25;20.80;64.60
31379;DHT22;61664;48.112;11.662;2022-10-04T13:31:13;20.70;61.90
31379;DHT22;61664;48.112;11.662;2022-10-04T13:46:24;20.70;62.90
31379;DHT22;61664;48.112;11.662;2022-10-04T13:49:04;20.70;61.80
31379;DHT22;61664;48.112;11.662;2022-10-04T13:57:50;20.80;62.10
31379;DHT22;61664;48.112;11.662;2022-10-04T14:03:27;21.10;61.60
31379;DHT22;61664;48.112;11.662;2022-10-04T14:09:18;21.50;62.30
31379;DHT22;61664;48.112;11.662;2022-10-04T14:31:11;26.40;62.40
31379;DHT22;61664;48.112;11.662;2022-10-04T14:49:58;27.80;60.30
31379;DHT22;61664;48.112;11.662;2022-10-04T14:58:21;30.10;60.10
31379;DHT22;61664;48.112;11.662;2022-10-04T15:06:44;31.70;63.00
31379;DHT22;61664;48.112;11.662;2022-10-04T15:20:27;32.80;55.00
31379;DHT22;61664;48.112;11.662;2022-10-04T15:42:38;32.70;49.40
31379;DHT22;61664;48.112;11.662;2022-10-04T15:51:57;31.60;47.60
31379;DHT22;61664;48.112;11.662;2022-10-04T16:00:12;29.50;45.70
31379;DHT22;61664;48.112;11.662;2022-10-04T16:08:40;26.90;50.70
31379;DHT22;61664;48.112;11.662;2022-10-04T16:11:34;26.10;48.80
31379;DHT22;61664;48.112;11.662;2022-10-04T16:22:35;23.50;53.30
31379;DHT22;61664;48.112;11.662;2022-10-04T16:33:30;21.70;55.30
31379;DHT22;61664;48.112;11.662;2022-10-04T16:36:07;21.30;54.40
31379;DHT22;61664;48.112;11.662;2022-10-04T16:38:46;21.00;56.50
31379;DHT22;61664;48.112;11.662;2022-10-04T16:44:37;20.40;58.60
31379;DHT22;61664;48.112;11.662;2022-10-04T16:47:37;20.10;58.00
31379;DHT22;61664;48.112;11.662;2022-10-04T17:01:42;18.80;59.80
31379;DHT22;61664;48.112;11.662;2022-10-04T17:13:10;18.10;62.30
31379;DHT22;61664;48.112;11.662;2022-10-04T17:16:09;17.90;61.20
31379;DHT22;61664;48.112;11.662;2022-10-04T17:21:53;17.60;61.90
31379;DHT22;61664;48.112;11.662;2022-10-04T17:30:21;17.20;64.30
31379;DHT22;61664;48.112;11.662;2022-10-04T17:39:01;16.80;65.00
31379;DHT22;61664;48.112;11.662;2022-10-04T17:50:14;16.40;65.00
31379;DHT22;61664;48.112;11.662;2022-10-04T17:53:18;16.30;65.10
31379;DHT22;61664;48.112;11.662;2022-10-04T17:56:09;16.20;65.60
31379;DHT22;61664;48.112;11.662;2022-10-04T17:58:53;16.10;66.50
31379;DHT22;61664;48.112;11.662;2022-10-04T18:01:33;16.00;65.80
31379;DHT22;61664;48.112;11.662;2022-10-04T18:04:23;15.90;66.60
31379;DHT22;61664;48.112;11.662;2022-10-04T18:07:03;15.90;65.20
31379;DHT22;61664;48.112;11.662;2022-10-04T18:09:42;15.80;66.60
31379;DHT22;61664;48.112;11.662;2022-10-04T18:12:35;15.80;67.10
31379;DHT22;61664;48.112;11.662;2022-10-04T18:15:24;15.60;66.50
31379;DHT22;61664;48.112;11.662;2022-10-04T18:18:17;15.60;67.00
31379;DHT22;61664;48.112;11.662;2022-10-04T18:23:27;15.40;67.20
31379;DHT22;61664;48.112;11.662;2022-10-04T18:26:04;15.30;67.20
31379;DHT22;61664;48.112;11.662;2022-10-04T18:28:36;15.30;67.60
31379;DHT22;61664;48.112;11.662;2022-10-04T18:31:19;15.20;68.00
31379;DHT22;61664;48.112;11.662;2022-10-04T18:33:52;15.20;67.40
31379;DHT22;61664;48.112;11.662;2022-10-04T18:36:23;15.10;68.10
31379;DHT22;61664;48.112;11.662;2022-10-04T18:39:00;15.10;66.80
31379;DHT22;61664;48.112;11.662;2022-10-04T18:41:31;15.00;68.20
31379;DHT22;61664;48.112;11.662;2022-10-04T18:44:20;14.90;68.50
31379;DHT22;61664;48.112;11.662;2022-10-04T18:46:55;14.80;68.50
31379;DHT22;61664;48.112;11.662;2022-10-04T18:49:30;14.70;68.60
31379;DHT22;61664;48.112;11.662;2022-10-04T18:52:23;14.70;68.70
31379;DHT22;61664;48.112;11.662;2022-10-04T18:58:48;14.50;68.70
31379;DHT22;61664;48.112;11.662;2022-10-04T19:05:14;14.40;68.70
31379;DHT22;61664;48.112;11.662;2022-10-04T19:11:26;14.20;69.30
31379;DHT22;61664;48.112;11.662;2022-10-04T19:17:13;14.10;69.70
31379;DHT22;61664;48.112;11.662;2022-10-04T19:20:02;14.10;69.80
31379;DHT22;61664;48.112;11.662;2022-10-04T19:26:17;14.00;70.10
31379;DHT22;61664;48.112;11.662;2022-10-04T19:34:32;13.90;70.50
31379;DHT22;61664;48.112;11.662;2022-10-04T19:40:15;13.80;70.10
31379;DHT22;61664;48.112;11.662;2022-10-04T19:43:09;13.80;70.80
31379;DHT22;61664;48.112;11.662;2022-10-04T19:46:20;13.70;70.40
31379;DHT22;61664;48.112;11.662;2022-10-04T19:48:58;13.70;70.20
31379;DHT22;61664;48.112;11.662;2022-10-04T19:51:35;13.60;71.10
31379;DHT22;61664;48.112;11.662;2022-10-04T19:54:10;13.60;70.70
31379;DHT22;61664;48.112;11.662;2022-10-04T19:56:45;13.60;71.10
31379;DHT22;61664;48.112;11.662;2022-10-04T19:59:22;13.50;71.20
31379;DHT22;61664;48.112;11.662;2022-10-04T20:02:01;13.50;71.20
31379;DHT22;61664;48.112;11.662;2022-10-04T20:04:36;13.50;71.50
31379;DHT22;61664;48.112;11.662;2022-10-04T20:12:35;13.30;71.60
31379;DHT22;61664;48.112;11.662;2022-10-04T20:17:44;13.30;71.20
31379;DHT22;61664;48.112;11.662;2022-10-04T20:20:15;13.20;71.80
31379;DHT22;61664;48.112;11.662;2022-10-04T20:23:05;13.20;72.00
31379;DHT22;61664;48.112;11.662;2022-10-04T20:30:55;13.10;71.60
31379;DHT22;61664;48.112;11.662;2022-10-04T20:36:07;13.00;71.90
31379;DHT22;61664;48.112;11.662;2022-10-04T20:38:57;13.00;72.20
31379;DHT22;61664;48.112;11.662;2022-10-04T20:52:41;12.90;72.70
31379;DHT22;61664;48.112;11.662;2022-10-04T20:55:20;12.80;72.80
31379;DHT22;61664;48.112;11.662;2022-10-04T20:58:01;12.80;72.50
31379;DHT22;61664;48.112;11.662;2022-10-04T21:00:32;12.80;72.90
31379;DHT22;61664;48.112;11.662;2022-10-04T21:03:15;12.90;73.00
31379;DHT22;61664;48.112;11.662;2022-10-04T21:05:44;12.80;72.50
31379;DHT22;61664;48.112;11.662;2022-10-04T21:08:25;12.80;73.10
31379;DHT22;61664;48.112;11.662;2022-10-04T21:11:17;12.80;73.10
31379;DHT22;61664;48.112;11.662;2022-10-04T21:16:39;12.80;73.10
31379;DHT22;61664;48.112;11.662;2022-10-04T21:19:48;12.70;72.30
31379;DHT22;61664;48.112;11.662;2022-10-04T21:29:56;12.70;72.60
31379;DHT22;61664;48.112;11.662;2022-10-04T21:32:24;12.70;73.20
31379;DHT22;61664;48.112;11.662;2022-10-04T21:34:53;12.60;73.20
31379;DHT22;61664;48.112;11.662;2022-10-04T21:37:20;12.60;73.30
31379;DHT22;61664;48.112;11.662;2022-10-04T21:39:47;12.60;73.30
31379;DHT22;61664;48.112;11.662;2022-10-04T21:42:14;12.50;73.30
31379;DHT22;61664;48.112;11.662;2022-10-04T21:44:42;12.50;73.40
31379;DHT22;61664;48.112;11.662;2022-10-04T21:47:09;12.50;73.40
31379;DHT22;61664;48.112;11.662;2022-10-04T21:49:39;12.50;73.50
31379;DHT22;61664;48.112;11.662;2022-10-04T21:52:07;12.50;73.60
31379;DHT22;61664;48.112;11.662;2022-10-04T21:54:34;12.40;73.50
31379;DHT22;61664;48.112;11.662;2022-10-04T21:57:01;12.40;73.50
31379;DHT22;61664;48.112;11.662;2022-10-04T21:59:27;12.30;73.50
31379;DHT22;61664;48.112;11.662;2022-10-04T22:01:54;12.30;73.60
31379;DHT22;61664;48.112;11.662;2022-10-04T22:04:21;12.30;73.70
31379;DHT22;61664;48.112;11.662;2022-10-04T22:06:48;12.20;73.70
31379;DHT22;61664;48.112;11.662;2022-10-04T22:09:15;12.20;73.80
31379;DHT22;61664;48.112;11.662;2022-10-04T22:11:42;12.20;73.90
31379;DHT22;61664;48.112;11.662;2022-10-04T22:14:09;12.10;73.90
31379;DHT22;61664;48.112;11.662;2022-10-04T22:16:36;12.10;74.00
31379;DHT22;61664;48.112;11.662;2022-10-04T22:19:03;12.10;74.10
31379;DHT22;61664;48.112;11.662;2022-10-04T22:21:30;12.10;74.20
31379;DHT22;61664;48.112;11.662;2022-10-04T22:23:57;12.10;74.20
31379;DHT22;61664;48.112;11.662;2022-10-04T22:26:25;12.00;74.20
31379;DHT22;61664;48.112;11.662;2022-10-04T22:28:55;12.00;74.20
31379;DHT22;61664;48.112;11.662;2022-10-04T22:31:26;12.00;74.20
31379;DHT22;61664;48.112;11.662;2022-10-04T22:33:54;12.00;74.20
31379;DHT22;61664;48.112;11.662;2022-10-04T22:36:38;11.90;74.30
31379;DHT22;61664;48.112;11.662;2022-10-04T22:41:47;11.90;74.40
31379;DHT22;61664;48.112;11.662;2022-10-04T22:44:24;11.90;74.50
31379;DHT22;61664;48.112;11.662;2022-10-04T22:46:56;11.90;74.60
31379;DHT22;61664;48.112;11.662;2022-10-04T22:49:30;11.90;74.60
31379;DHT22;61664;48.112;11.662;2022-10-04T22:52:01;11.90;74.60
31379;DHT22;61664;48.112;11.662;2022-10-04T22:54:35;11.90;74.60
31379;DHT22;61664;48.112;11.662;2022-10-04T22:57:04;11.90;74.60
31379;DHT22;61664;48.112;11.662;2022-10-04T22:59:37;11.80;74.60
31379;DHT22;61664;48.112;11.662;2022-10-04T23:02:16;11.80;74.40
31379;DHT22;61664;48.112;11.662;2022-10-04T23:04:55;11.80;74.50
31379;DHT22;61664;48.112;11.662;2022-10-04T23:07:26;11.80;74.60
31379;DHT22;61664;48.112;11.662;2022-10-04T23:09:53;11.80;75.20
31379;DHT22;61664;48.112;11.662;2022-10-04T23:12:20;11.80;74.80
31379;DHT22;61664;48.112;11.662;2022-10-04T23:14:47;11.80;74.80
31379;DHT22;61664;48.112;11.662;2022-10-04T23:17:28;11.70;74.80
31379;DHT22;61664;48.112;11.662;2022-10-04T23:19:58;11.70;74.40
31379;DHT22;61664;48.112;11.662;2022-10-04T23:22:29;11.70;74.90
31379;DHT22;61664;48.112;11.662;2022-10-04T23:24:56;11.70;74.90
31379;DHT22;61664;48.112;11.662;2022-10-04T23:27:23;11.70;74.90
31379;DHT22;61664;48.112;11.662;2022-10-04T23:30:17;11.60;74.90
31379;DHT22;61664;48.112;11.662;2022-10-04T23:32:47;11.60;74.10
31379;DHT22;61664;48.112;11.662;2022-10-04T23:35:19;11.60;74.90
31379;DHT22;61664;48.112;11.662;2022-10-04T23:37:49;11.60;74.90
31379;DHT22;61664;48.112;11.662;2022-10-04T23:40:19;11.60;75.00
31379;DHT22;61664;48.112;11.662;2022-10-04T23:42:49;11.60;75.10
31379;DHT22;61664;48.112;11.662;2022-10-04T23:45:21;11.50;75.10
31379;DHT22;61664;48.112;11.662;2022-10-04T23:47:54;11.50;75.10
31379;DHT22;61664;48.112;11.662;2022-10-04T23:50:29;11.50;74.90
31379;DHT22;61664;48.112;11.662;2022-10-04T23:53:00;11.50;75.00
31379;DHT22;61664;48.112;11.662;2022-10-04T23:55:34;11.50;75.10
31379;DHT22;61664;48.112;11.662;2022-10-04T23:58:16;11.50;75.10
